createdAt,value
2023-06-15T00:00:20.047Z,50.81
2023-06-15T00:02:48.646Z,50.78
2023-06-15T00:05:17.872Z,50.79
2023-06-15T00:07:47.822Z,50.97
2023-06-15T00:10:16.144Z,50.81
2023-06-15T00:12:44.298Z,50.81
2023-06-15T00:15:13.114Z,50.89
2023-06-15T00:17:43.209Z,50.82
2023-06-15T00:20:13.639Z,50.80
2023-06-15T00:22:42.842Z,50.62
2023-06-15T00:25:12.745Z,50.62
2023-06-15T00:27:40.919Z,50.75
2023-06-15T00:30:11.711Z,50.57
2023-06-15T00:32:42.991Z,50.57
2023-06-15T00:35:11.305Z,50.63
2023-06-15T00:37:39.571Z,50.56
2023-06-15T00:40:08.887Z,50.67
2023-06-15T00:42:38.451Z,50.59
2023-06-15T00:45:07.676Z,50.87
2023-06-15T00:47:40.225Z,50.70
2023-06-15T00:50:11.899Z,50.58
2023-06-15T00:52:40.633Z,50.70
2023-06-15T00:55:13.803Z,50.66
2023-06-15T00:57:46.311Z,50.77
2023-06-15T01:00:16.052Z,50.57
2023-06-15T01:02:46.143Z,50.57
2023-06-15T01:05:17.899Z,50.69
2023-06-15T01:07:50.058Z,50.62
2023-06-15T01:10:20.317Z,50.70
2023-06-15T01:12:52.372Z,50.61
2023-06-15T01:15:21.036Z,50.69
2023-06-15T01:17:55.417Z,50.73
2023-06-15T01:20:28.817Z,50.74
2023-06-15T01:23:03.274Z,50.69
2023-06-15T01:25:38.929Z,50.62
2023-06-15T01:28:10.906Z,50.68
2023-06-15T01:30:43.509Z,50.64
2023-06-15T01:33:12.824Z,50.54
2023-06-15T01:35:41.107Z,50.51
2023-06-15T01:38:09.738Z,50.68
2023-06-15T01:40:40.851Z,50.82
2023-06-15T01:43:13.210Z,50.62
2023-06-15T01:45:43.535Z,50.79
2023-06-15T01:48:12.489Z,50.73
2023-06-15T01:50:42.837Z,50.66
2023-06-15T01:53:11.249Z,50.67
2023-06-15T01:55:39.481Z,50.74
2023-06-15T01:58:07.708Z,50.60
2023-06-15T02:00:37.617Z,50.55
2023-06-15T02:03:05.973Z,50.59
2023-06-15T02:05:40.252Z,50.49
2023-06-15T02:08:09.206Z,50.53
2023-06-15T02:10:37.426Z,50.64
2023-06-15T02:13:05.967Z,50.68
2023-06-15T02:15:34.060Z,50.63
2023-06-15T02:18:04.192Z,50.43
2023-06-15T02:20:33.557Z,50.52
2023-06-15T02:23:03.505Z,50.63
2023-06-15T02:25:33.007Z,50.71
2023-06-15T02:28:01.170Z,50.71
2023-06-15T02:30:29.522Z,50.63
2023-06-15T02:33:01.690Z,50.58
2023-06-15T02:35:31.796Z,50.76
2023-06-15T02:37:59.946Z,50.55
2023-06-15T02:40:28.117Z,50.60
2023-06-15T02:42:56.366Z,50.49
2023-06-15T02:45:24.729Z,50.67
2023-06-15T02:47:52.901Z,50.53
2023-06-15T02:50:21.379Z,50.59
2023-06-15T02:52:50.961Z,50.54
2023-06-15T02:55:19.317Z,50.49
2023-06-15T02:57:47.753Z,50.67
2023-06-15T03:00:18.885Z,50.61
2023-06-15T03:02:47.610Z,50.61
2023-06-15T03:05:16.353Z,50.68
2023-06-15T03:07:44.625Z,50.65
2023-06-15T03:10:14.168Z,50.80
2023-06-15T03:12:42.338Z,50.67
2023-06-15T03:15:11.583Z,50.62
2023-06-15T03:17:40.724Z,50.61
2023-06-15T03:20:12.446Z,50.57
2023-06-15T03:22:41.101Z,50.72
2023-06-15T03:25:12.762Z,50.70
2023-06-15T03:27:44.472Z,50.87
2023-06-15T03:30:13.586Z,50.60
2023-06-15T03:32:43.057Z,50.71
2023-06-15T03:35:13.578Z,50.56
2023-06-15T03:37:41.873Z,50.61
2023-06-15T03:40:10.930Z,50.76
2023-06-15T03:42:39.220Z,50.66
2023-06-15T03:45:09.591Z,50.75
2023-06-15T03:47:37.788Z,50.57
2023-06-15T03:50:08.008Z,50.71
2023-06-15T03:52:37.427Z,50.36
2023-06-15T03:55:06.549Z,50.59
2023-06-15T03:57:34.708Z,50.53
2023-06-15T04:00:03.058Z,50.75
2023-06-15T04:02:32.720Z,50.71
2023-06-15T04:05:01.427Z,50.62
2023-06-15T04:07:30.534Z,50.73
2023-06-15T04:09:59.084Z,50.62
2023-06-15T04:12:27.222Z,50.74
2023-06-15T04:14:55.701Z,50.76
2023-06-15T04:17:23.875Z,50.72
2023-06-15T04:19:53.459Z,50.69
2023-06-15T04:22:21.650Z,50.74
2023-06-15T04:24:49.795Z,50.63
2023-06-15T04:27:20.327Z,50.57
2023-06-15T04:29:51.310Z,50.60
2023-06-15T04:32:19.672Z,50.51
2023-06-15T04:34:47.832Z,50.52
2023-06-15T04:37:18.238Z,50.56
2023-06-15T04:39:46.672Z,50.55
2023-06-15T04:42:14.921Z,50.51
2023-06-15T04:44:43.074Z,50.44
2023-06-15T04:47:11.291Z,50.52
2023-06-15T04:49:43.157Z,50.46
2023-06-15T04:52:11.766Z,50.54
2023-06-15T04:54:41.270Z,50.54
2023-06-15T04:57:10.176Z,50.51
2023-06-15T04:59:39.969Z,50.35
2023-06-15T05:02:08.929Z,50.55
2023-06-15T05:04:37.498Z,50.65
2023-06-15T05:07:06.256Z,50.57
2023-06-15T05:09:34.423Z,50.57
2023-06-15T05:12:04.003Z,50.43
2023-06-15T05:14:32.217Z,50.56
2023-06-15T05:17:04.364Z,50.43
2023-06-15T05:19:32.631Z,50.51
2023-06-15T05:22:02.408Z,50.61
2023-06-15T05:24:30.617Z,50.78
2023-06-15T05:26:58.908Z,50.60
2023-06-15T05:29:28.372Z,50.51
2023-06-15T05:31:57.226Z,50.49
2023-06-15T05:34:37.627Z,50.50
2023-06-15T05:37:06.154Z,50.43
2023-06-15T05:39:34.391Z,50.45
2023-06-15T05:42:03.620Z,50.34
2023-06-15T05:44:33.207Z,50.46
2023-06-15T05:47:02.283Z,50.56
2023-06-15T05:49:30.363Z,50.54
2023-06-15T05:51:58.504Z,50.62
2023-06-15T05:54:26.929Z,50.60
2023-06-15T05:56:55.158Z,50.64
2023-06-15T05:59:32.525Z,50.71
2023-06-15T06:02:03.271Z,50.65
2023-06-15T06:04:31.578Z,50.59
2023-06-15T06:06:59.740Z,50.48
2023-06-15T06:09:28.045Z,50.50
2023-06-15T06:11:57.642Z,50.60
2023-06-15T06:14:26.905Z,50.65
2023-06-15T06:16:55.355Z,50.61
2023-06-15T06:19:25.589Z,50.51
2023-06-15T06:21:53.875Z,50.65
2023-06-15T06:24:24.240Z,50.54
2023-06-15T06:26:53.241Z,50.48
2023-06-15T06:29:21.426Z,50.62
2023-06-15T06:31:49.574Z,50.49
2023-06-15T06:34:17.793Z,50.79
2023-06-15T06:36:47.362Z,50.53
2023-06-15T06:39:15.508Z,50.71
2023-06-15T06:41:43.629Z,50.88
2023-06-15T06:44:11.743Z,50.52
2023-06-15T06:46:39.846Z,50.80
2023-06-15T06:49:08.073Z,50.67
2023-06-15T06:51:37.243Z,50.72
2023-06-15T06:54:07.104Z,50.43
2023-06-15T06:56:35.227Z,50.78
2023-06-15T06:59:03.391Z,50.77
2023-06-15T07:01:31.547Z,50.78
2023-06-15T07:03:59.731Z,50.75
2023-06-15T07:06:27.862Z,50.75
2023-06-15T07:08:56.125Z,50.85
2023-06-15T07:11:25.585Z,50.75
2023-06-15T07:13:53.782Z,50.90
2023-06-15T07:16:22.066Z,50.70
2023-06-15T07:18:50.216Z,50.88
2023-06-15T07:21:18.436Z,50.91
2023-06-15T07:23:53.544Z,50.93
2023-06-15T07:26:22.806Z,51.01
2023-06-15T07:28:52.418Z,51.05
2023-06-15T07:31:20.636Z,50.97
2023-06-15T07:33:48.793Z,50.94
2023-06-15T07:36:17.170Z,50.96
2023-06-15T07:38:45.321Z,50.72
2023-06-15T07:41:13.385Z,50.89
2023-06-15T07:43:41.482Z,50.84
2023-06-15T07:46:10.958Z,50.99
2023-06-15T07:48:39.055Z,50.99
2023-06-15T07:51:07.249Z,50.82
2023-06-15T07:53:35.371Z,51.02
2023-06-15T07:56:03.693Z,51.12
2023-06-15T07:58:31.890Z,51.05
2023-06-15T08:01:00.230Z,51.08
2023-06-15T08:03:30.121Z,51.25
2023-06-15T08:05:58.313Z,50.96
2023-06-15T08:08:26.691Z,51.01
2023-06-15T08:10:55.284Z,51.00
2023-06-15T08:13:24.107Z,51.03
2023-06-15T08:15:52.841Z,51.08
2023-06-15T08:18:21.333Z,51.14
2023-06-15T08:20:51.815Z,51.19
2023-06-15T08:23:20.332Z,51.08
2023-06-15T08:25:49.000Z,51.19
2023-06-15T08:28:17.087Z,51.05
2023-06-15T08:30:45.217Z,51.28
2023-06-15T08:33:13.416Z,51.21
2023-06-15T08:35:42.147Z,51.29
2023-06-15T08:38:11.647Z,51.09
2023-06-15T08:40:39.850Z,51.40
2023-06-15T08:43:09.434Z,51.30
2023-06-15T08:45:42.303Z,51.42
2023-06-15T08:48:12.660Z,51.44
2023-06-15T08:50:43.355Z,51.31
2023-06-15T08:53:16.118Z,51.35
2023-06-15T08:55:44.998Z,51.41
2023-06-15T08:58:13.298Z,51.44
2023-06-15T09:00:44.738Z,51.25
2023-06-15T09:03:14.641Z,51.48
2023-06-15T09:05:45.045Z,51.38
2023-06-15T09:08:14.604Z,51.34
2023-06-15T09:10:43.385Z,51.49
2023-06-15T09:13:17.589Z,51.50
2023-06-15T09:15:51.826Z,51.56
2023-06-15T09:18:20.122Z,51.50
2023-06-15T09:20:50.912Z,51.69
2023-06-15T09:23:20.555Z,51.50
2023-06-15T09:25:52.936Z,51.60
2023-06-15T09:28:24.273Z,51.44
2023-06-15T09:30:56.862Z,51.62
2023-06-15T09:33:26.849Z,51.44
2023-06-15T09:35:59.998Z,51.61
2023-06-15T09:38:31.253Z,51.39
2023-06-15T09:41:03.935Z,51.54
2023-06-15T09:43:35.500Z,51.40
2023-06-15T09:46:04.918Z,51.74
2023-06-15T09:48:33.309Z,51.43
2023-06-15T09:51:03.788Z,51.53
2023-06-15T09:53:34.738Z,51.53
2023-06-15T09:56:14.156Z,51.63
2023-06-15T09:58:49.680Z,51.46
2023-06-15T10:01:20.630Z,51.68
2023-06-15T10:03:54.617Z,51.51
2023-06-15T10:06:26.507Z,51.73
2023-06-15T10:09:01.673Z,51.65
2023-06-15T10:11:30.640Z,51.71
2023-06-15T10:14:07.246Z,51.64
2023-06-15T10:16:36.688Z,51.79
2023-06-15T10:19:12.142Z,51.69
2023-06-15T10:21:44.763Z,51.74
2023-06-15T10:24:18.017Z,51.67
2023-06-15T10:26:47.021Z,51.85
2023-06-15T10:29:20.889Z,51.81
2023-06-15T10:31:54.777Z,51.60
2023-06-15T10:34:29.056Z,51.91
2023-06-15T10:37:04.267Z,51.87
2023-06-15T10:39:38.248Z,51.96
2023-06-15T10:42:09.885Z,51.99
2023-06-15T10:44:38.073Z,51.81
2023-06-15T10:47:10.307Z,52.10
2023-06-15T10:49:38.816Z,52.03
2023-06-15T10:52:07.337Z,52.02
2023-06-15T10:54:38.361Z,51.93
2023-06-15T10:57:09.221Z,51.99
2023-06-15T10:59:49.061Z,52.34
2023-06-15T11:02:53.510Z,52.66
2023-06-15T11:05:23.713Z,52.15
2023-06-15T11:07:53.174Z,52.22
2023-06-15T11:10:29.012Z,52.33
2023-06-15T11:13:03.856Z,52.32
2023-06-15T11:15:37.064Z,52.24
2023-06-15T11:18:07.528Z,52.49
2023-06-15T11:21:00.746Z,52.58
2023-06-15T11:23:34.705Z,52.42
2023-06-15T11:26:04.547Z,52.20
2023-06-15T11:28:38.263Z,52.43
2023-06-15T11:31:08.603Z,52.57
2023-06-15T11:33:39.265Z,52.38
2023-06-15T11:36:09.233Z,52.39
2023-06-15T11:38:38.042Z,52.43
2023-06-15T11:41:08.888Z,52.47
2023-06-15T11:43:39.571Z,52.52
2023-06-15T11:46:12.337Z,52.65
2023-06-15T11:48:42.933Z,52.50
2023-06-15T11:51:13.109Z,52.66
2023-06-15T11:53:41.601Z,52.73
2023-06-15T11:56:14.198Z,52.73
2023-06-15T11:58:43.185Z,52.66
2023-06-15T12:01:13.675Z,52.65
2023-06-15T12:04:02.496Z,52.90
2023-06-15T12:06:34.327Z,52.61
2023-06-15T12:09:03.453Z,52.77
2023-06-15T12:11:33.145Z,52.74
2023-06-15T12:14:09.118Z,52.98
2023-06-15T12:16:37.963Z,52.83
2023-06-15T12:19:10.480Z,52.84
2023-06-15T12:21:40.763Z,52.86
2023-06-15T12:24:14.523Z,52.86
2023-06-15T12:26:49.693Z,52.78
2023-06-15T12:29:19.233Z,52.92
2023-06-15T12:31:49.865Z,52.80
2023-06-15T12:34:23.533Z,52.96
2023-06-15T12:36:52.333Z,52.78
2023-06-15T12:39:20.578Z,52.88
2023-06-15T12:41:50.439Z,52.73
2023-06-15T12:44:18.515Z,52.97
2023-06-15T12:46:46.658Z,52.79
2023-06-15T12:49:14.821Z,52.83
2023-06-15T12:51:47.910Z,52.95
2023-06-15T12:54:15.967Z,53.01
2023-06-15T12:56:44.654Z,52.79
2023-06-15T12:59:14.346Z,52.86
2023-06-15T13:01:42.520Z,52.91
2023-06-15T13:04:11.375Z,53.02
2023-06-15T13:06:39.802Z,53.09
2023-06-15T13:09:07.884Z,52.91
2023-06-15T13:11:37.537Z,52.98
2023-06-15T13:14:05.796Z,52.92
2023-06-15T13:16:35.358Z,53.03
2023-06-15T13:19:03.880Z,53.02
2023-06-15T13:21:32.135Z,53.03
2023-06-15T13:24:00.331Z,53.11
2023-06-15T13:26:28.537Z,53.10
2023-06-15T13:28:57.207Z,53.23
2023-06-15T13:31:25.341Z,53.07
2023-06-15T13:33:54.918Z,53.24
2023-06-15T13:36:23.089Z,53.30
2023-06-15T13:38:51.212Z,53.10
2023-06-15T13:41:19.320Z,53.08
2023-06-15T13:43:47.501Z,53.31
2023-06-15T13:46:16.507Z,53.08
2023-06-15T13:48:44.645Z,53.37
2023-06-15T13:51:14.148Z,53.32
2023-06-15T13:53:42.318Z,53.43
2023-06-15T13:56:10.465Z,53.41
2023-06-15T13:58:38.728Z,53.45
2023-06-15T14:01:06.828Z,53.47
2023-06-15T14:03:35.077Z,53.35
2023-06-15T14:06:03.339Z,53.56
2023-06-15T14:08:32.961Z,53.61
2023-06-15T14:11:01.134Z,53.53
2023-06-15T14:13:29.269Z,53.87
2023-06-15T14:15:57.520Z,53.51
2023-06-15T14:18:25.703Z,53.79
2023-06-15T14:20:53.826Z,53.72
2023-06-15T14:23:24.212Z,53.66
2023-06-15T14:25:53.885Z,53.75
2023-06-15T14:28:22.242Z,53.75
2023-06-15T14:30:59.545Z,54.08
2023-06-15T14:33:28.825Z,53.71
2023-06-15T14:35:57.242Z,53.79
2023-06-15T14:38:25.584Z,53.85
2023-06-15T14:40:55.147Z,53.86
2023-06-15T14:43:23.381Z,53.90
2023-06-15T14:45:51.599Z,54.13
2023-06-15T14:48:19.759Z,54.05
2023-06-15T14:50:48.261Z,54.00
2023-06-15T14:53:16.405Z,54.10
2023-06-15T14:55:44.862Z,53.97
2023-06-15T14:58:14.656Z,54.05
2023-06-15T15:00:42.865Z,54.05
2023-06-15T15:03:11.154Z,54.04
2023-06-15T15:05:39.356Z,54.00
2023-06-15T15:08:08.952Z,54.09
2023-06-15T15:10:37.132Z,54.20
2023-06-15T15:13:05.418Z,54.06
2023-06-15T15:15:34.909Z,54.05
2023-06-15T15:18:04.462Z,54.12
2023-06-15T15:20:32.652Z,54.10
2023-06-15T15:23:01.076Z,54.08
2023-06-15T15:25:29.197Z,54.25
2023-06-15T15:27:57.325Z,54.25
2023-06-15T15:30:25.384Z,54.11
2023-06-15T15:32:55.008Z,54.19
2023-06-15T15:35:24.692Z,54.43
2023-06-15T15:37:52.815Z,54.23
2023-06-15T15:40:21.280Z,54.34
2023-06-15T15:42:49.557Z,54.36
2023-06-15T15:45:17.694Z,54.32
2023-06-15T15:47:45.851Z,54.34
2023-06-15T15:50:15.835Z,54.31
2023-06-15T15:52:44.488Z,54.46
2023-06-15T15:55:12.638Z,54.31
2023-06-15T15:57:42.497Z,54.40
2023-06-15T16:00:11.945Z,54.55
2023-06-15T16:02:40.219Z,54.51
2023-06-15T16:05:09.473Z,54.36
2023-06-15T16:07:40.715Z,54.52
2023-06-15T16:10:10.494Z,54.33
2023-06-15T16:12:39.530Z,54.60
2023-06-15T16:15:09.597Z,54.39
2023-06-15T16:17:38.404Z,54.37
2023-06-15T16:20:08.042Z,54.43
2023-06-15T16:22:36.510Z,54.64
2023-06-15T16:25:06.728Z,54.56
2023-06-15T16:27:35.053Z,54.41
2023-06-15T16:30:03.185Z,54.52
2023-06-15T16:32:31.407Z,54.37
2023-06-15T16:34:59.474Z,54.74
2023-06-15T16:37:27.688Z,54.60
2023-06-15T16:39:57.074Z,54.63
2023-06-15T16:42:30.312Z,54.63
2023-06-15T16:45:01.335Z,54.64
2023-06-15T16:47:30.229Z,54.54
2023-06-15T16:49:59.791Z,54.42
2023-06-15T16:52:29.692Z,54.56
2023-06-15T16:54:58.093Z,54.65
2023-06-15T16:57:27.935Z,54.88
2023-06-15T16:59:56.090Z,54.78
2023-06-15T17:02:24.215Z,54.76
2023-06-15T17:04:54.454Z,54.63
2023-06-15T17:07:22.673Z,54.68
2023-06-15T17:09:50.951Z,54.78
2023-06-15T17:12:19.085Z,54.80
2023-06-15T17:14:50.715Z,54.67
2023-06-15T17:17:18.893Z,54.71
2023-06-15T17:19:46.990Z,54.82
2023-06-15T17:22:15.247Z,54.84
2023-06-15T17:24:43.464Z,54.85
2023-06-15T17:27:12.875Z,54.85
2023-06-15T17:29:41.173Z,54.74
2023-06-15T17:32:11.965Z,54.69
2023-06-15T17:34:40.295Z,54.71
2023-06-15T17:37:08.570Z,54.77
2023-06-15T17:39:36.874Z,54.74
2023-06-15T17:42:05.377Z,54.60
2023-06-15T17:44:33.462Z,54.60
2023-06-15T17:47:01.933Z,54.44
2023-06-15T17:49:31.457Z,54.55
2023-06-15T17:51:59.602Z,54.53
2023-06-15T17:54:27.998Z,54.55
2023-06-15T17:56:56.162Z,54.63
2023-06-15T17:59:24.450Z,54.52
2023-06-15T18:01:52.666Z,54.48
2023-06-15T18:04:21.725Z,54.58
2023-06-15T18:06:51.349Z,54.63
2023-06-15T18:09:19.438Z,54.69
2023-06-15T18:11:47.644Z,54.68
2023-06-15T18:14:15.909Z,54.45
2023-06-15T18:16:44.068Z,54.65
2023-06-15T18:19:12.209Z,54.66
2023-06-15T18:21:40.868Z,54.65
2023-06-15T18:24:13.026Z,54.85
2023-06-15T18:26:46.058Z,54.98
2023-06-15T18:29:14.508Z,54.90
2023-06-15T18:31:42.666Z,54.88
2023-06-15T18:34:15.318Z,54.78
2023-06-15T18:36:43.930Z,55.04
2023-06-15T18:39:15.387Z,55.36
2023-06-15T18:41:43.583Z,55.14
2023-06-15T18:44:11.966Z,55.35
2023-06-15T18:46:40.051Z,55.38
2023-06-15T18:49:08.368Z,55.39
2023-06-15T18:51:36.516Z,55.53
2023-06-15T18:54:04.946Z,55.60
2023-06-15T18:56:34.540Z,55.63
2023-06-15T18:59:02.730Z,55.61
2023-06-15T19:01:31.078Z,55.69
2023-06-15T19:03:59.234Z,55.72
2023-06-15T19:06:27.452Z,55.92
2023-06-15T19:08:55.672Z,55.76
2023-06-15T19:11:23.761Z,56.02
2023-06-15T19:13:53.299Z,56.04
2023-06-15T19:16:21.608Z,56.07
2023-06-15T19:18:49.774Z,56.19
2023-06-15T19:21:17.916Z,56.06
2023-06-15T19:23:47.911Z,56.15
2023-06-15T19:26:18.293Z,56.35
2023-06-15T19:28:49.030Z,56.29
2023-06-15T19:31:20.219Z,56.38
2023-06-15T19:33:48.321Z,56.41
2023-06-15T19:36:19.219Z,56.45
2023-06-15T19:39:01.108Z,56.52
2023-06-15T19:41:30.857Z,56.45
2023-06-15T19:43:59.287Z,56.64
2023-06-15T19:46:28.970Z,56.67
2023-06-15T19:48:57.120Z,56.76
2023-06-15T19:51:25.336Z,56.79
2023-06-15T19:53:53.965Z,56.71
2023-06-15T19:56:23.642Z,56.75
2023-06-15T19:58:51.866Z,56.85
2023-06-15T20:01:20.330Z,56.63
2023-06-15T20:03:50.244Z,56.82
2023-06-15T20:06:18.505Z,57.00
2023-06-15T20:08:46.904Z,57.08
2023-06-15T20:11:15.072Z,56.76
2023-06-15T20:13:43.529Z,57.16
2023-06-15T20:16:31.653Z,57.08
2023-06-15T20:19:01.520Z,57.18
2023-06-15T20:21:30.173Z,57.13
2023-06-15T20:23:58.394Z,57.27
2023-06-15T20:26:28.539Z,57.27
2023-06-15T20:28:56.818Z,57.39
2023-06-15T20:31:25.029Z,57.49
2023-06-15T20:33:53.182Z,57.49
2023-06-15T20:36:22.858Z,57.67
2023-06-15T20:38:51.321Z,57.79
2023-06-15T20:41:19.670Z,57.91
2023-06-15T20:43:48.271Z,57.84
2023-06-15T20:46:19.862Z,58.03
2023-06-15T20:48:50.109Z,58.17
2023-06-15T20:51:18.277Z,58.26
2023-06-15T20:53:47.787Z,58.27
2023-06-15T20:56:16.230Z,58.29
2023-06-15T20:58:44.897Z,58.47
2023-06-15T21:01:13.119Z,58.53
2023-06-15T21:03:41.453Z,58.61
2023-06-15T21:06:09.680Z,58.64
2023-06-15T21:08:39.922Z,58.93
2023-06-15T21:11:11.994Z,58.86
2023-06-15T21:13:40.123Z,58.83
2023-06-15T21:16:08.387Z,58.74
2023-06-15T21:18:37.024Z,58.91
2023-06-15T21:21:06.264Z,58.90
2023-06-15T21:23:35.419Z,59.11
2023-06-15T21:26:04.585Z,58.96
2023-06-15T21:28:35.678Z,58.92
2023-06-15T21:31:04.433Z,59.01
2023-06-15T21:33:32.563Z,59.12
2023-06-15T21:36:00.693Z,59.08
2023-06-15T21:38:28.761Z,59.14
2023-06-15T21:40:56.970Z,59.11
2023-06-15T21:43:25.392Z,59.11
2023-06-15T21:45:57.310Z,59.13
2023-06-15T21:48:25.608Z,59.32
2023-06-15T21:50:53.739Z,59.41
2023-06-15T21:53:22.170Z,59.30
2023-06-15T21:55:51.611Z,59.26
2023-06-15T21:58:19.696Z,59.49
2023-06-15T22:00:49.024Z,59.34
2023-06-15T22:03:18.712Z,59.46
2023-06-15T22:05:47.067Z,59.63
2023-06-15T22:08:15.734Z,59.51
2023-06-15T22:10:43.852Z,59.49
2023-06-15T22:13:15.660Z,59.49
2023-06-15T22:15:43.861Z,59.52
2023-06-15T22:18:12.064Z,59.35
2023-06-15T22:20:43.181Z,59.50
2023-06-15T22:23:11.349Z,59.52
2023-06-15T22:25:47.257Z,59.52
2023-06-15T22:28:23.149Z,59.49
2023-06-15T22:30:51.668Z,59.41
2023-06-15T22:33:24.204Z,59.61
2023-06-15T22:35:54.558Z,59.38
2023-06-15T22:38:22.820Z,59.66
2023-06-15T22:40:51.334Z,59.68
2023-06-15T22:43:19.984Z,59.71
2023-06-15T22:45:48.162Z,59.71
2023-06-15T22:48:21.766Z,59.77
2023-06-15T22:50:55.794Z,59.64
2023-06-15T22:53:26.334Z,59.76
2023-06-15T22:55:54.897Z,59.51
2023-06-15T22:58:26.170Z,59.66
2023-06-15T23:00:56.178Z,59.67
2023-06-15T23:03:24.715Z,59.85
2023-06-15T23:05:52.974Z,59.62
2023-06-15T23:08:23.234Z,59.80
2023-06-15T23:10:54.154Z,59.64
2023-06-15T23:13:22.942Z,59.79
2023-06-15T23:15:56.282Z,59.72
2023-06-15T23:18:28.300Z,59.90
2023-06-15T23:21:00.725Z,59.73
2023-06-15T23:23:34.990Z,59.88
2023-06-15T23:26:06.789Z,59.66
2023-06-15T23:28:35.098Z,59.86
2023-06-15T23:31:03.176Z,59.70
2023-06-15T23:33:31.333Z,59.87
2023-06-15T23:35:59.512Z,59.87
2023-06-15T23:38:27.658Z,60.00
2023-06-15T23:40:55.712Z,59.81
2023-06-15T23:43:25.196Z,59.89
2023-06-15T23:45:53.371Z,59.87
2023-06-15T23:48:24.268Z,59.90
2023-06-15T23:50:52.379Z,59.98
2023-06-15T23:53:20.827Z,59.99
2023-06-15T23:55:49.792Z,59.94
2023-06-15T23:58:17.916Z,60.02
